createdAt,value
2018-09-14T00:00:35.113Z,1015.81
2018-09-14T00:01:35.081Z,1015.80
2018-09-14T00:02:35.168Z,1015.83
2018-09-14T00:03:34.974Z,1015.79
2018-09-14T00:04:36.997Z,1015.77
2018-09-14T00:05:34.882Z,1015.82
2018-09-14T00:06:34.871Z,1015.79
2018-09-14T00:07:34.805Z,1015.75
2018-09-14T00:08:34.775Z,1015.84
2018-09-14T00:09:34.734Z,1015.79
2018-09-14T00:10:34.669Z,1015.81
2018-09-14T00:11:34.647Z,1015.80
2018-09-14T00:12:34.626Z,1015.83
2018-09-14T00:13:34.562Z,1015.82
2018-09-14T00:14:34.535Z,1015.81
2018-09-14T00:15:34.488Z,1015.80
2018-09-14T00:16:34.457Z,1015.80
2018-09-14T00:17:34.413Z,1015.79
2018-09-14T00:18:34.375Z,1015.82
2018-09-14T00:19:34.333Z,1015.81
2018-09-14T00:20:34.299Z,1015.82
2018-09-14T00:21:34.240Z,1015.80
2018-09-14T00:22:34.235Z,1015.80
2018-09-14T00:23:34.153Z,1015.81
2018-09-14T00:24:34.118Z,1015.82
2018-09-14T00:25:34.104Z,1015.77
2018-09-14T00:26:34.033Z,1015.74
2018-09-14T00:27:34.021Z,1015.76
2018-09-14T00:28:33.947Z,1015.72
2018-09-14T00:29:33.904Z,1015.74
2018-09-14T00:30:33.889Z,1015.77
2018-09-14T00:31:33.840Z,1015.73
2018-09-14T00:32:33.812Z,1015.75
2018-09-14T00:33:33.738Z,1015.74
2018-09-14T00:34:33.707Z,1015.76
2018-09-14T00:35:33.664Z,1015.68
2018-09-14T00:36:33.622Z,1015.71
2018-09-14T00:37:33.595Z,1015.70
2018-09-14T00:38:33.534Z,1015.69
2018-09-14T00:39:33.510Z,1015.68
2018-09-14T00:40:33.448Z,1015.67
2018-09-14T00:41:33.413Z,1015.67
2018-09-14T00:42:33.387Z,1015.70
2018-09-14T00:43:33.328Z,1015.66
2018-09-14T00:44:33.301Z,1015.67
2018-09-14T00:45:33.240Z,1015.66
2018-09-14T00:46:33.211Z,1015.61
2018-09-14T00:47:33.185Z,1015.62
2018-09-14T00:48:33.141Z,1015.59
2018-09-14T00:49:33.075Z,1015.59
2018-09-14T00:50:33.030Z,1015.60
2018-09-14T00:51:32.999Z,1015.62
2018-09-14T00:52:32.984Z,1015.64
2018-09-14T00:53:32.926Z,1015.64
2018-09-14T00:54:32.860Z,1015.69
2018-09-14T00:55:32.822Z,1015.70
2018-09-14T00:56:32.771Z,1015.68
2018-09-14T00:57:32.793Z,1015.65
2018-09-14T00:58:32.712Z,1015.64
2018-09-14T00:59:32.657Z,1015.60
2018-09-14T01:00:32.604Z,1015.65
2018-09-14T01:01:32.576Z,1015.67
2018-09-14T01:02:32.529Z,1015.66
2018-09-14T01:03:32.523Z,1015.69
2018-09-14T01:04:32.452Z,1015.64
2018-09-14T01:05:32.424Z,1015.65
2018-09-14T01:06:32.412Z,1015.66
2018-09-14T01:07:32.331Z,1015.69
2018-09-14T01:08:32.360Z,1015.68
2018-09-14T01:09:32.241Z,1015.66
2018-09-14T01:10:32.196Z,1015.68
2018-09-14T01:11:32.164Z,1015.64
2018-09-14T01:12:32.126Z,1015.68
2018-09-14T01:13:32.111Z,1015.66
2018-09-14T01:14:32.063Z,1015.61
2018-09-14T01:15:32.009Z,1015.61
2018-09-14T01:16:31.988Z,1015.64
2018-09-14T01:17:31.925Z,1015.61
2018-09-14T01:18:31.910Z,1015.65
2018-09-14T01:19:31.830Z,1015.63
2018-09-14T01:20:31.788Z,1015.63
2018-09-14T01:21:31.739Z,1015.61
2018-09-14T01:22:42.081Z,1015.62
2018-09-14T01:23:31.685Z,1015.58
2018-09-14T01:24:31.889Z,1015.58
2018-09-14T01:25:31.576Z,1015.53
2018-09-14T01:26:31.538Z,1015.54
2018-09-14T01:27:31.517Z,1015.53
2018-09-14T01:28:31.471Z,1015.54
2018-09-14T01:29:31.425Z,1015.53
2018-09-14T01:30:31.370Z,1015.52
2018-09-14T01:31:31.318Z,1015.52
2018-09-14T01:32:31.289Z,1015.49
2018-09-14T01:33:31.264Z,1015.54
2018-09-14T01:34:31.231Z,1015.50
2018-09-14T01:35:31.177Z,1015.46
2018-09-14T01:36:31.113Z,1015.53
2018-09-14T01:37:31.069Z,1015.56
2018-09-14T01:38:31.036Z,1015.49
2018-09-14T01:39:31.035Z,1015.46
2018-09-14T01:40:30.938Z,1015.51
2018-09-14T01:41:30.916Z,1015.46
2018-09-14T01:42:30.891Z,1015.46
2018-09-14T01:43:30.845Z,1015.48
2018-09-14T01:44:30.795Z,1015.47
2018-09-14T01:45:30.771Z,1015.49
2018-09-14T01:46:30.716Z,1015.48
2018-09-14T01:47:30.700Z,1015.46
2018-09-14T01:48:30.627Z,1015.45
2018-09-14T01:49:30.570Z,1015.45
2018-09-14T01:50:30.583Z,1015.44
2018-09-14T01:51:30.489Z,1015.47
2018-09-14T01:52:30.452Z,1015.44
2018-09-14T01:53:30.415Z,1015.43
2018-09-14T01:54:30.368Z,1015.41
2018-09-14T01:55:30.363Z,1015.42
2018-09-14T01:56:30.285Z,1015.41
2018-09-14T01:57:30.228Z,1015.43
2018-09-14T01:58:30.211Z,1015.40
2018-09-14T01:59:30.181Z,1015.42
2018-09-14T02:00:30.128Z,1015.43
2018-09-14T02:01:30.107Z,1015.46
2018-09-14T02:02:30.028Z,1015.42
2018-09-14T02:03:30.058Z,1015.39
2018-09-14T02:04:29.969Z,1015.41
2018-09-14T02:05:29.912Z,1015.40
2018-09-14T02:06:29.910Z,1015.37
2018-09-14T02:07:29.837Z,1015.38
2018-09-14T02:08:29.821Z,1015.40
2018-09-14T02:09:29.744Z,1015.42
2018-09-14T02:10:29.703Z,1015.40
2018-09-14T02:11:29.700Z,1015.41
2018-09-14T02:12:29.634Z,1015.39
2018-09-14T02:13:29.575Z,1015.42
2018-09-14T02:14:29.537Z,1015.39
2018-09-14T02:15:29.483Z,1015.38
2018-09-14T02:16:29.471Z,1015.39
2018-09-14T02:17:29.413Z,1015.37
2018-09-14T02:18:29.369Z,1015.37
2018-09-14T02:19:29.349Z,1015.39
2018-09-14T02:20:29.295Z,1015.34
2018-09-14T02:21:29.236Z,1015.35
2018-09-14T02:22:29.228Z,1015.34
2018-09-14T02:23:29.178Z,1015.34
2018-09-14T02:24:29.114Z,1015.34
2018-09-14T02:25:29.087Z,1015.36
2018-09-14T02:26:29.049Z,1015.32
2018-09-14T02:27:29.034Z,1015.34
2018-09-14T02:28:28.950Z,1015.34
2018-09-14T02:29:28.923Z,1015.31
2018-09-14T02:30:28.870Z,1015.32
2018-09-14T02:31:28.843Z,1015.33
2018-09-14T02:32:28.819Z,1015.32
2018-09-14T02:33:28.751Z,1015.33
2018-09-14T02:34:28.698Z,1015.30
2018-09-14T02:35:28.655Z,1015.29
2018-09-14T02:36:28.611Z,1015.35
2018-09-14T02:37:28.588Z,1015.33
2018-09-14T02:38:28.569Z,1015.35
2018-09-14T02:39:28.527Z,1015.33
2018-09-14T02:40:28.452Z,1015.35
2018-09-14T02:41:28.407Z,1015.36
2018-09-14T02:42:28.372Z,1015.34
2018-09-14T02:43:28.352Z,1015.37
2018-09-14T02:44:28.278Z,1015.35
2018-09-14T02:45:28.247Z,1015.31
2018-09-14T02:46:28.238Z,1015.31
2018-09-14T02:47:28.200Z,1015.34
2018-09-14T02:48:28.138Z,1015.31
2018-09-14T02:49:28.102Z,1015.30
2018-09-14T02:50:28.029Z,1015.28
2018-09-14T02:51:27.990Z,1015.25
2018-09-14T02:52:27.952Z,1015.25
2018-09-14T02:53:27.926Z,1015.26
2018-09-14T02:54:27.866Z,1015.27
2018-09-14T02:55:27.828Z,1015.28
2018-09-14T02:56:27.769Z,1015.24
2018-09-14T02:57:27.741Z,1015.27
2018-09-14T02:58:27.725Z,1015.28
2018-09-14T02:59:27.677Z,1015.26
2018-09-14T03:00:27.620Z,1015.25
2018-09-14T03:01:27.580Z,1015.26
2018-09-14T03:02:27.557Z,1015.24
2018-09-14T03:03:27.491Z,1015.26
2018-09-14T03:04:27.478Z,1015.28
2018-09-14T03:05:27.387Z,1015.27
2018-09-14T03:06:27.352Z,1015.32
2018-09-14T03:07:27.314Z,1015.29
2018-09-14T03:08:27.313Z,1015.29
2018-09-14T03:09:27.275Z,1015.29
2018-09-14T03:10:27.201Z,1015.34
2018-09-14T03:11:27.144Z,1015.31
2018-09-14T03:12:27.139Z,1015.31
2018-09-14T03:13:27.068Z,1015.30
2018-09-14T03:14:27.023Z,1015.32
2018-09-14T03:15:27.011Z,1015.31
2018-09-14T03:16:26.941Z,1015.32
2018-09-14T03:17:26.915Z,1015.30
2018-09-14T03:18:26.865Z,1015.28
2018-09-14T03:19:26.811Z,1015.28
2018-09-14T03:20:26.791Z,1015.22
2018-09-14T03:21:26.752Z,1015.25
2018-09-14T03:22:26.699Z,1015.22
2018-09-14T03:23:26.648Z,1015.21
2018-09-14T03:24:26.608Z,1015.21
2018-09-14T03:25:26.590Z,1015.18
2018-09-14T03:26:26.514Z,1015.21
2018-09-14T03:27:26.482Z,1015.20
2018-09-14T03:28:26.437Z,1015.22
2018-09-14T03:29:26.398Z,1015.21
2018-09-14T03:30:26.379Z,1015.23
2018-09-14T03:31:26.312Z,1015.22
2018-09-14T03:32:26.276Z,1015.24
2018-09-14T03:33:26.222Z,1015.21
2018-09-14T03:34:26.194Z,1015.24
2018-09-14T03:35:26.144Z,1015.26
2018-09-14T03:36:26.131Z,1015.23
2018-09-14T03:37:26.054Z,1015.25
2018-09-14T03:38:26.055Z,1015.20
2018-09-14T03:39:26.016Z,1015.20
2018-09-14T03:40:25.936Z,1015.20
2018-09-14T03:41:25.943Z,1015.19
2018-09-14T03:42:25.864Z,1015.22
2018-09-14T03:43:25.812Z,1015.21
2018-09-14T03:44:25.768Z,1015.22
2018-09-14T03:45:25.725Z,1015.22
2018-09-14T03:46:25.716Z,1015.26
2018-09-14T03:47:25.636Z,1015.28
2018-09-14T03:48:25.597Z,1015.26
2018-09-14T03:49:25.551Z,1015.28
2018-09-14T03:50:25.511Z,1015.22
2018-09-14T03:51:25.504Z,1015.21
2018-09-14T03:52:25.412Z,1015.24
2018-09-14T03:53:25.396Z,1015.20
2018-09-14T03:54:25.396Z,1015.19
2018-09-14T03:55:25.299Z,1015.20
2018-09-14T03:56:25.280Z,1015.18
2018-09-14T03:57:25.315Z,1015.23
2018-09-14T03:58:25.188Z,1015.21
2018-09-14T03:59:25.133Z,1015.24
2018-09-14T04:00:25.088Z,1015.28
2018-09-14T04:01:25.053Z,1015.26
2018-09-14T04:02:25.059Z,1015.24
2018-09-14T04:03:24.966Z,1015.25
2018-09-14T04:04:24.925Z,1015.22
2018-09-14T04:05:24.894Z,1015.26
2018-09-14T04:06:24.839Z,1015.22
2018-09-14T04:07:24.797Z,1015.27
2018-09-14T04:08:24.808Z,1015.27
2018-09-14T04:09:24.710Z,1015.27
2018-09-14T04:10:24.673Z,1015.25
2018-09-14T04:11:24.647Z,1015.25
2018-09-14T04:12:24.579Z,1015.27
2018-09-14T04:13:24.571Z,1015.25
2018-09-14T04:14:24.496Z,1015.26
2018-09-14T04:15:24.457Z,1015.25
2018-09-14T04:16:24.427Z,1015.21
2018-09-14T04:17:24.370Z,1015.25
2018-09-14T04:18:24.393Z,1015.25
2018-09-14T04:19:24.281Z,1015.21
2018-09-14T04:20:24.258Z,1015.25
2018-09-14T04:21:24.245Z,1015.31
2018-09-14T04:22:24.186Z,1015.26
2018-09-14T04:23:24.222Z,1015.24
2018-09-14T04:24:24.109Z,1015.26
2018-09-14T04:25:24.034Z,1015.30
2018-09-14T04:26:23.993Z,1015.28
2018-09-14T04:27:23.977Z,1015.29
2018-09-14T04:28:23.943Z,1015.29
2018-09-14T04:29:23.861Z,1015.30
2018-09-14T04:30:23.812Z,1015.31
2018-09-14T04:31:23.780Z,1015.29
2018-09-14T04:32:23.750Z,1015.28
2018-09-14T04:33:23.733Z,1015.32
2018-09-14T04:34:23.675Z,1015.31
2018-09-14T04:35:23.621Z,1015.34
2018-09-14T04:36:23.578Z,1015.36
2018-09-14T04:37:23.545Z,1015.32
2018-09-14T04:38:23.553Z,1015.34
2018-09-14T04:39:23.444Z,1015.30
2018-09-14T04:40:23.410Z,1015.33
2018-09-14T04:41:23.408Z,1015.29
2018-09-14T04:42:23.354Z,1015.25
2018-09-14T04:43:23.299Z,1015.27
2018-09-14T04:44:23.256Z,1015.29
2018-09-14T04:45:23.198Z,1015.27
2018-09-14T04:46:23.151Z,1015.27
2018-09-14T04:47:23.118Z,1015.23
2018-09-14T04:48:23.167Z,1015.21
2018-09-14T04:49:23.015Z,1015.23
2018-09-14T04:50:22.988Z,1015.20
2018-09-14T04:51:22.949Z,1015.22
2018-09-14T04:52:22.888Z,1015.23
2018-09-14T04:53:22.906Z,1015.26
2018-09-14T04:54:22.818Z,1015.26
2018-09-14T04:55:22.760Z,1015.28
2018-09-14T04:56:22.726Z,1015.26
2018-09-14T04:57:22.758Z,1015.24
2018-09-14T04:58:22.680Z,1015.22
2018-09-14T04:59:22.629Z,1015.24
2018-09-14T05:00:22.570Z,1015.23
2018-09-14T05:01:22.517Z,1015.23
2018-09-14T05:02:22.498Z,1015.25
2018-09-14T05:03:22.456Z,1015.28
2018-09-14T05:04:22.424Z,1015.28
2018-09-14T05:05:22.363Z,1015.31
2018-09-14T05:06:22.303Z,1015.29
2018-09-14T05:07:22.289Z,1015.31
2018-09-14T05:08:22.219Z,1015.34
2018-09-14T05:09:22.200Z,1015.35
2018-09-14T05:10:22.139Z,1015.34
2018-09-14T05:11:22.106Z,1015.32
2018-09-14T05:12:22.067Z,1015.35
2018-09-14T05:13:22.016Z,1015.29
2018-09-14T05:14:21.990Z,1015.28
2018-09-14T05:15:21.939Z,1015.29
2018-09-14T05:16:21.884Z,1015.33
2018-09-14T05:17:21.855Z,1015.35
2018-09-14T05:18:21.822Z,1015.33
2018-09-14T05:19:21.793Z,1015.37
2018-09-14T05:20:21.743Z,1015.36
2018-09-14T05:21:21.693Z,1015.37
2018-09-14T05:22:21.665Z,1015.38
2018-09-14T05:23:21.605Z,1015.38
2018-09-14T05:24:21.588Z,1015.38
2018-09-14T05:25:21.550Z,1015.40
2018-09-14T05:26:21.485Z,1015.37
2018-09-14T05:27:21.436Z,1015.38
2018-09-14T05:28:21.381Z,1015.41
2018-09-14T05:29:21.353Z,1015.41
2018-09-14T05:30:21.343Z,1015.41
2018-09-14T05:31:21.260Z,1015.45
2018-09-14T05:32:21.234Z,1015.44
2018-09-14T05:33:21.162Z,1015.46
2018-09-14T05:34:21.128Z,1015.46
2018-09-14T05:35:21.123Z,1015.48
2018-09-14T05:36:21.038Z,1015.49
2018-09-14T05:37:21.018Z,1015.48
2018-09-14T05:38:21.069Z,1015.50
2018-09-14T05:39:20.943Z,1015.46
2018-09-14T05:40:20.887Z,1015.50
2018-09-14T05:41:20.858Z,1015.50
2018-09-14T05:42:20.790Z,1015.53
2018-09-14T05:43:20.764Z,1015.53
2018-09-14T05:44:20.714Z,1015.49
2018-09-14T05:45:20.681Z,1015.50
2018-09-14T05:46:20.665Z,1015.50
2018-09-14T05:47:20.595Z,1015.50
2018-09-14T05:48:20.538Z,1015.51
2018-09-14T05:49:20.515Z,1015.53
2018-09-14T05:50:20.475Z,1015.59
2018-09-14T05:51:20.463Z,1015.58
2018-09-14T05:52:20.402Z,1015.60
2018-09-14T05:53:20.355Z,1015.64
2018-09-14T05:54:20.331Z,1015.65
2018-09-14T05:55:20.255Z,1015.71
2018-09-14T05:56:20.207Z,1015.67
2018-09-14T05:57:20.229Z,1015.73
2018-09-14T05:58:20.156Z,1015.69
2018-09-14T05:59:20.081Z,1015.71
2018-09-14T06:00:20.075Z,1015.70
2018-09-14T06:01:20.019Z,1015.69
2018-09-14T06:02:20.016Z,1015.74
2018-09-14T06:03:19.936Z,1015.72
2018-09-14T06:04:19.896Z,1015.75
2018-09-14T06:05:19.835Z,1015.77
2018-09-14T06:06:19.833Z,1015.83
2018-09-14T06:07:19.815Z,1015.78
2018-09-14T06:08:19.716Z,1015.83
2018-09-14T06:09:19.691Z,1015.85
2018-09-14T06:10:19.670Z,1015.86
2018-09-14T06:11:19.614Z,1015.89
2018-09-14T06:12:19.565Z,1015.88
2018-09-14T06:13:19.566Z,1015.88
2018-09-14T06:14:19.522Z,1015.85
2018-09-14T06:15:19.433Z,1015.88
2018-09-14T06:16:19.413Z,1015.92
2018-09-14T06:17:19.358Z,1015.90
2018-09-14T06:18:19.353Z,1015.95
2018-09-14T06:19:19.272Z,1015.96
2018-09-14T06:20:19.259Z,1015.98
2018-09-14T06:21:19.222Z,1015.99
2018-09-14T06:22:19.177Z,1015.99
2018-09-14T06:23:19.146Z,1016.00
2018-09-14T06:24:19.089Z,1016.07
2018-09-14T06:25:19.117Z,1016.08
2018-09-14T06:26:18.987Z,1016.07
2018-09-14T06:27:18.954Z,1016.06
2018-09-14T06:28:18.949Z,1016.05
2018-09-14T06:29:18.916Z,1016.07
2018-09-14T06:30:18.912Z,1016.09
2018-09-14T06:31:18.804Z,1016.07
2018-09-14T06:32:18.760Z,1016.11
2018-09-14T06:33:18.732Z,1016.11
2018-09-14T06:34:18.734Z,1016.13
2018-09-14T06:35:18.643Z,1016.13
2018-09-14T06:36:18.613Z,1016.16
2018-09-14T06:37:18.566Z,1016.13
2018-09-14T06:38:18.604Z,1016.16
2018-09-14T06:39:18.515Z,1016.17
2018-09-14T06:40:18.482Z,1016.11
2018-09-14T06:41:18.433Z,1016.13
2018-09-14T06:42:18.416Z,1016.14
2018-09-14T06:43:18.354Z,1016.14
2018-09-14T06:44:18.335Z,1016.12
2018-09-14T06:45:18.353Z,1016.11
2018-09-14T06:46:18.228Z,1016.07
2018-09-14T06:47:18.205Z,1016.07
2018-09-14T06:48:18.160Z,1016.11
2018-09-14T06:49:18.165Z,1016.09
2018-09-14T06:50:18.091Z,1016.10
2018-09-14T06:51:18.057Z,1016.12
2018-09-14T06:52:18.009Z,1016.15
2018-09-14T06:53:18.039Z,1016.14
2018-09-14T06:54:17.948Z,1016.13
2018-09-14T06:55:17.945Z,1016.14
2018-09-14T06:56:17.876Z,1016.16
2018-09-14T06:57:17.824Z,1016.14
2018-09-14T06:58:17.796Z,1016.17
2018-09-14T06:59:17.743Z,1016.17
2018-09-14T07:00:17.785Z,1016.13
2018-09-14T07:01:17.726Z,1016.17
2018-09-14T07:02:17.645Z,1016.15
2018-09-14T07:03:17.616Z,1016.16
2018-09-14T07:04:17.591Z,1016.20
2018-09-14T07:05:17.623Z,1016.23
2018-09-14T07:06:17.521Z,1016.24
2018-09-14T07:07:17.478Z,1016.26
2018-09-14T07:08:17.437Z,1016.27
2018-09-14T07:09:17.401Z,1016.30
2018-09-14T07:10:17.373Z,1016.29
2018-09-14T07:11:17.317Z,1016.33
2018-09-14T07:12:29.894Z,1016.32
2018-09-14T07:13:17.358Z,1016.34
2018-09-14T07:14:17.234Z,1016.31
2018-09-14T07:15:17.207Z,1016.37
2018-09-14T07:16:17.185Z,1016.44
2018-09-14T07:17:17.200Z,1016.51
2018-09-14T07:18:17.076Z,1016.53
2018-09-14T07:19:17.073Z,1016.55
2018-09-14T07:20:17.005Z,1016.58
2018-09-14T07:21:16.978Z,1016.58
2018-09-14T07:22:17.036Z,1016.59
2018-09-14T07:23:16.900Z,1016.63
2018-09-14T07:24:16.941Z,1016.62
2018-09-14T07:25:16.916Z,1016.64
2018-09-14T07:26:16.853Z,1016.68
2018-09-14T07:27:16.823Z,1016.72
2018-09-14T07:28:16.712Z,1016.69
2018-09-14T07:29:16.824Z,1016.71
2018-09-14T07:30:16.679Z,1016.76
2018-09-14T07:31:16.643Z,1016.78
2018-09-14T07:32:16.593Z,1016.83
2018-09-14T07:33:16.553Z,1016.91
2018-09-14T07:34:16.535Z,1016.97
2018-09-14T07:35:16.502Z,1017.06
2018-09-14T07:36:16.483Z,1017.08
2018-09-14T07:37:16.437Z,1017.12
2018-09-14T07:38:16.408Z,1017.16
2018-09-14T07:39:16.398Z,1017.22
2018-09-14T07:40:16.296Z,1017.23
2018-09-14T07:41:16.303Z,1017.29
2018-09-14T07:42:16.230Z,1017.37
2018-09-14T07:43:16.211Z,1017.46
2018-09-14T07:44:16.174Z,1017.57
2018-09-14T07:45:16.153Z,1017.60
2018-09-14T07:46:16.112Z,1017.74
2018-09-14T07:47:16.092Z,1017.93
2018-09-14T07:48:16.115Z,1018.09
2018-09-14T07:49:16.014Z,1018.19
2018-09-14T07:50:15.991Z,1018.18
2018-09-14T07:51:15.966Z,1018.17
2018-09-14T07:52:15.895Z,1018.19
2018-09-14T07:53:15.876Z,1017.99
2018-09-14T07:54:15.832Z,1017.84
2018-09-14T07:55:15.809Z,1017.69
2018-09-14T07:56:15.777Z,1017.58
2018-09-14T07:57:15.785Z,1017.50
2018-09-14T07:58:15.737Z,1017.46
2018-09-14T07:59:15.662Z,1017.43
2018-09-14T08:00:15.670Z,1017.42
2018-09-14T08:01:15.690Z,1017.41
2018-09-14T08:02:15.625Z,1017.34
2018-09-14T08:03:15.598Z,1017.35
2018-09-14T08:04:15.885Z,1017.35
2018-09-14T08:05:15.473Z,1017.30
2018-09-14T08:06:15.458Z,1017.29
2018-09-14T08:07:15.460Z,1017.30
2018-09-14T08:08:15.374Z,1017.30
2018-09-14T08:09:15.352Z,1017.26
2018-09-14T08:10:15.338Z,1017.23
2018-09-14T08:11:15.272Z,1017.25
2018-09-14T08:12:15.307Z,1017.27
2018-09-14T08:13:15.272Z,1017.27
2018-09-14T08:14:15.169Z,1017.27
2018-09-14T08:15:15.176Z,1017.28
2018-09-14T08:16:15.151Z,1017.26
2018-09-14T08:17:15.107Z,1017.22
2018-09-14T08:18:15.083Z,1017.26
2018-09-14T08:19:15.019Z,1017.20
2018-09-14T08:20:15.034Z,1017.25
2018-09-14T08:21:15.015Z,1017.22
2018-09-14T08:22:14.925Z,1017.23
2018-09-14T08:23:14.911Z,1017.25
2018-09-14T08:24:14.832Z,1017.25
2018-09-14T08:25:14.810Z,1017.29
2018-09-14T08:26:14.791Z,1017.26
2018-09-14T08:27:15.043Z,1017.25
2018-09-14T08:28:14.745Z,1017.23
2018-09-14T08:29:14.702Z,1017.24
2018-09-14T08:30:14.694Z,1017.23
2018-09-14T08:31:14.658Z,1017.28
2018-09-14T08:32:14.679Z,1017.27
2018-09-14T08:33:14.625Z,1017.31
2018-09-14T08:34:14.572Z,1017.32
2018-09-14T08:35:14.510Z,1017.33
2018-09-14T08:36:14.463Z,1017.35
2018-09-14T08:37:14.440Z,1017.34
2018-09-14T08:38:14.785Z,1017.38
2018-09-14T08:39:14.438Z,1017.36
2018-09-14T08:40:14.997Z,1017.33
2018-09-14T08:41:14.418Z,1017.35
2018-09-14T08:42:14.284Z,1017.34
2018-09-14T08:43:14.228Z,1017.34
2018-09-14T08:44:14.218Z,1017.30
2018-09-14T08:45:14.201Z,1017.37
2018-09-14T08:46:14.131Z,1017.41
2018-09-14T08:47:14.113Z,1017.38
2018-09-14T08:48:14.090Z,1017.42
2018-09-14T08:49:14.167Z,1017.41
2018-09-14T08:50:14.008Z,1017.39
2018-09-14T08:51:13.954Z,1017.41
2018-09-14T08:52:13.937Z,1017.40
2018-09-14T08:53:14.121Z,1017.42
2018-09-14T08:54:13.890Z,1017.40
2018-09-14T08:55:13.844Z,1017.43
2018-09-14T08:56:13.804Z,1017.42
2018-09-14T08:57:13.857Z,1017.43
2018-09-14T08:58:13.805Z,1017.42
2018-09-14T08:59:13.757Z,1017.45
2018-09-14T09:00:13.716Z,1017.43
2018-09-14T09:01:13.664Z,1017.45
2018-09-14T09:02:13.604Z,1017.40
2018-09-14T09:03:13.633Z,1017.43
2018-09-14T09:04:13.580Z,1017.46
2018-09-14T09:05:13.540Z,1017.50
2018-09-14T09:06:13.464Z,1017.42
2018-09-14T09:07:13.490Z,1017.47
2018-09-14T09:08:13.536Z,1017.46
2018-09-14T09:09:13.424Z,1017.44
2018-09-14T09:10:25.544Z,1017.44
2018-09-14T09:11:13.467Z,1017.42
2018-09-14T09:12:13.421Z,1017.48
2018-09-14T09:13:13.295Z,1017.44
2018-09-14T09:14:13.205Z,1017.43
2018-09-14T09:15:13.252Z,1017.40
2018-09-14T09:16:13.197Z,1017.40
2018-09-14T09:17:13.135Z,1017.40
2018-09-14T09:18:13.093Z,1017.38
2018-09-14T09:19:13.250Z,1017.34
2018-09-14T09:20:13.035Z,1017.36
2018-09-14T09:21:13.050Z,1017.35
2018-09-14T09:22:12.951Z,1017.31
2018-09-14T09:23:12.939Z,1017.32
2018-09-14T09:24:12.893Z,1017.29
2018-09-14T09:25:12.867Z,1017.31
2018-09-14T09:26:12.915Z,1017.34
2018-09-14T09:27:12.797Z,1017.34
2018-09-14T09:28:12.765Z,1017.35
2018-09-14T09:29:12.743Z,1017.30
2018-09-14T09:30:12.707Z,1017.28
2018-09-14T09:31:12.696Z,1017.31
2018-09-14T09:32:24.088Z,1017.25
2018-09-14T09:33:12.613Z,1017.25
2018-09-14T09:34:12.583Z,1017.31
2018-09-14T09:35:12.534Z,1017.30
2018-09-14T09:36:12.504Z,1017.32
2018-09-14T09:37:12.512Z,1017.33
2018-09-14T09:38:12.452Z,1017.30
2018-09-14T09:39:12.432Z,1017.32
2018-09-14T09:40:12.391Z,1017.32
2018-09-14T09:41:12.390Z,1017.32
2018-09-14T09:42:12.357Z,1017.30
2018-09-14T09:43:12.347Z,1017.28
2018-09-14T09:44:12.285Z,1017.28
2018-09-14T09:45:12.239Z,1017.27
2018-09-14T09:46:12.213Z,1017.27
2018-09-14T09:47:12.215Z,1017.22
2018-09-14T09:48:12.143Z,1017.06
2018-09-14T09:49:12.108Z,1017.22
2018-09-14T09:50:12.088Z,1017.16
2018-09-14T09:51:12.116Z,1017.19
2018-09-14T09:52:12.029Z,1017.23
2018-09-14T09:53:12.010Z,1017.21
2018-09-14T09:54:11.964Z,1017.22
2018-09-14T09:55:11.934Z,1017.22
2018-09-14T09:56:11.909Z,1017.16
2018-09-14T09:57:11.879Z,1017.15
2018-09-14T09:58:11.867Z,1017.15
2018-09-14T09:59:11.817Z,1017.21
2018-09-14T10:00:11.774Z,1017.19
2018-09-14T10:01:11.734Z,1017.14
2018-09-14T10:02:11.708Z,1017.15
2018-09-14T10:03:11.739Z,1017.12
2018-09-14T10:04:11.757Z,1017.13
2018-09-14T10:05:11.617Z,1017.12
2018-09-14T10:06:11.601Z,1017.08
2018-09-14T10:07:11.558Z,1017.06
2018-09-14T10:08:11.548Z,1017.07
2018-09-14T10:09:11.524Z,1017.10
2018-09-14T10:10:11.468Z,1017.07
2018-09-14T10:11:11.433Z,1017.11
2018-09-14T10:12:11.421Z,1017.09
2018-09-14T10:13:11.384Z,1017.14
2018-09-14T10:14:11.425Z,1017.14
2018-09-14T10:15:11.321Z,1017.10
2018-09-14T10:16:11.276Z,1017.12
2018-09-14T10:17:11.267Z,1017.11
2018-09-14T10:18:11.270Z,1017.08
2018-09-14T10:19:11.177Z,1017.11
2018-09-14T10:20:11.179Z,1017.12
2018-09-14T10:21:11.170Z,1017.12
2018-09-14T10:22:11.097Z,1017.09
2018-09-14T10:23:11.099Z,1017.09
2018-09-14T10:24:11.059Z,1017.11
2018-09-14T10:25:11.010Z,1017.10
2018-09-14T10:26:10.975Z,1017.08
2018-09-14T10:27:10.947Z,1017.06
2018-09-14T10:28:10.927Z,1017.10
2018-09-14T10:29:10.932Z,1017.09
2018-09-14T10:30:10.872Z,1017.05
2018-09-14T10:31:10.861Z,1017.04
2018-09-14T10:32:10.795Z,1017.00
2018-09-14T10:33:10.815Z,1016.96
2018-09-14T10:34:10.778Z,1016.95
2018-09-14T10:35:10.711Z,1016.89
2018-09-14T10:36:10.718Z,1016.91
2018-09-14T10:37:10.649Z,1016.94
2018-09-14T10:38:10.627Z,1016.91
2018-09-14T10:39:10.605Z,1016.89
2018-09-14T10:40:10.609Z,1016.88
2018-09-14T10:41:10.536Z,1016.90
2018-09-14T10:42:10.536Z,1016.86
2018-09-14T10:43:20.216Z,1016.89
2018-09-14T10:44:10.442Z,1016.86
2018-09-14T10:45:10.425Z,1016.83
2018-09-14T10:46:10.459Z,1016.84
2018-09-14T10:47:10.340Z,1016.83
2018-09-14T10:48:10.328Z,1016.79
2018-09-14T10:49:10.294Z,1016.82
2018-09-14T10:50:10.244Z,1016.81
2018-09-14T10:51:10.236Z,1016.80
2018-09-14T10:52:10.255Z,1016.79
2018-09-14T10:53:10.178Z,1016.75
2018-09-14T10:54:10.232Z,1016.81
2018-09-14T10:55:10.138Z,1016.79
2018-09-14T10:56:10.082Z,1016.78
2018-09-14T10:57:10.059Z,1016.80
2018-09-14T10:58:10.056Z,1016.79
2018-09-14T10:59:10.026Z,1016.79
2018-09-14T11:00:09.976Z,1016.76
2018-09-14T11:01:09.954Z,1016.73
2018-09-14T11:02:09.914Z,1016.75
2018-09-14T11:03:09.867Z,1016.76
2018-09-14T11:04:09.868Z,1016.73
2018-09-14T11:05:09.931Z,1016.74
2018-09-14T11:06:10.027Z,1016.70
2018-09-14T11:07:09.932Z,1016.69
2018-09-14T11:08:09.749Z,1016.63
2018-09-14T11:09:09.712Z,1016.65
2018-09-14T11:10:09.703Z,1016.66
2018-09-14T11:11:09.673Z,1016.65
2018-09-14T11:12:09.604Z,1016.61
2018-09-14T11:13:09.736Z,1016.60
2018-09-14T11:14:10.114Z,1016.57
2018-09-14T11:15:09.585Z,1016.59
2018-09-14T11:16:09.516Z,1016.60
2018-09-14T11:17:09.665Z,1016.62
2018-09-14T11:18:09.436Z,1016.61
2018-09-14T11:19:09.502Z,1016.52
2018-09-14T11:20:09.372Z,1016.56
2018-09-14T11:21:09.400Z,1016.27
2018-09-14T11:22:09.307Z,1016.50
2018-09-14T11:23:09.307Z,1016.11
2018-09-14T11:24:09.271Z,1016.45
2018-09-14T11:25:09.273Z,1016.56
2018-09-14T11:26:09.207Z,1016.58
2018-09-14T11:27:09.199Z,1016.52
2018-09-14T11:28:09.146Z,1016.58
2018-09-14T11:29:19.180Z,1016.52
2018-09-14T11:30:09.086Z,1016.51
2018-09-14T11:31:09.063Z,1015.96
2018-09-14T11:32:09.076Z,1015.98
2018-09-14T11:33:08.998Z,1015.94
2018-09-14T11:34:08.953Z,1015.93
2018-09-14T11:35:08.939Z,1015.91
2018-09-14T11:36:08.949Z,1015.95
2018-09-14T11:37:08.959Z,1015.96
2018-09-14T11:38:08.908Z,1015.86
2018-09-14T11:39:08.804Z,1015.86
2018-09-14T11:40:08.773Z,1015.90
2018-09-14T11:41:19.704Z,1015.87
2018-09-14T11:42:08.710Z,1015.85
2018-09-14T11:43:08.697Z,1015.77
2018-09-14T11:44:08.641Z,1015.78
2018-09-14T11:45:08.639Z,1015.81
2018-09-14T11:46:08.610Z,1015.82
2018-09-14T11:47:08.592Z,1015.79
2018-09-14T11:48:08.528Z,1015.78
2018-09-14T11:49:08.524Z,1015.77
2018-09-14T11:50:08.457Z,1015.73
2018-09-14T11:51:08.423Z,1015.72
2018-09-14T11:52:08.442Z,1015.69
2018-09-14T11:53:08.393Z,1016.05
2018-09-14T11:54:08.395Z,1016.03
2018-09-14T11:55:08.291Z,1015.99
2018-09-14T11:56:08.257Z,1016.02
2018-09-14T11:57:08.270Z,1015.96
2018-09-14T11:58:08.276Z,1015.77
2018-09-14T11:59:08.191Z,1016.03
2018-09-14T12:00:08.137Z,1015.84
2018-09-14T12:01:08.112Z,1015.79
2018-09-14T12:02:08.058Z,1015.77
2018-09-14T12:03:08.056Z,1015.83
2018-09-14T12:04:08.023Z,1015.81
2018-09-14T12:05:07.972Z,1015.76